Time;durP1;ratioP1;P1;durP2;ratioP2;P2;SDS_P1;SDS_P2;PMS_P1;PMS_P2;Temp;Humidity;BMP_temperature;BMP_pressure;BME280_temperature;BME280_humidity;BME280_pressure;Samples;Min_cycle;Max_cycle;Signal;HPM_P1;HPM_P2
2022/03/16 00:00:25;;;;;;;17.88;15.98;;;7.80;99.90;;;;;;5033480;28;20257;-83
2022/03/16 00:02:54;;;;;;;18.27;15.70;;;7.80;99.90;;;;;;5033253;28;20222;-83
2022/03/16 00:05:23;;;;;;;18.25;16.50;;;7.70;99.90;;;;;;5033754;28;20262;-83
2022/03/16 00:07:51;;;;;;;16.77;15.07;;;7.70;99.90;;;;;;5033629;28;20198;-83
2022/03/16 00:10:20;;;;;;;21.42;16.63;;;7.70;99.90;;;;;;5033276;28;20231;-83
2022/03/16 00:12:48;;;;;;;18.38;15.95;;;7.80;99.90;;;;;;5033287;28;20214;-82
2022/03/16 00:15:16;;;;;;;18.60;15.82;;;7.80;99.90;;;;;;5033442;28;20234;-83
2022/03/16 00:17:44;;;;;;;16.98;15.32;;;7.80;99.90;;;;;;5033543;28;20206;-83
2022/03/16 00:20:14;;;;;;;17.48;15.90;;;7.80;99.90;;;;;;5033480;28;20314;-83
2022/03/16 00:22:43;;;;;;;25.92;17.73;;;7.70;99.90;;;;;;5033162;28;20226;-83
2022/03/16 00:25:11;;;;;;;17.50;15.85;;;7.60;99.90;;;;;;5033250;28;20230;-83
2022/03/16 00:27:40;;;;;;;16.23;14.63;;;7.60;99.90;;;;;;5033262;28;20296;-83
2022/03/16 00:30:09;;;;;;;17.35;15.55;;;7.60;99.90;;;;;;5033636;28;20301;-83
2022/03/16 00:32:38;;;;;;;17.52;15.65;;;7.60;99.90;;;;;;5033202;28;20268;-82
2022/03/16 00:35:07;;;;;;;20.58;16.92;;;7.70;99.90;;;;;;5032614;28;20206;-83
2022/03/16 00:37:36;;;;;;;18.33;15.23;;;7.70;99.90;;;;;;5033125;28;20290;-83
2022/03/16 00:40:06;;;;;;;21.17;14.23;;;7.70;99.90;;;;;;5033407;28;20294;-83
2022/03/16 00:42:34;;;;;;;17.77;13.98;;;7.70;99.90;;;;;;5033334;28;20206;-83
2022/03/16 00:45:02;;;;;;;17.65;15.02;;;7.80;99.90;;;;;;5032999;28;20214;-83
2022/03/16 00:47:30;;;;;;;17.48;15.65;;;7.70;99.90;;;;;;5032686;28;20227;-83
2022/03/16 00:49:59;;;;;;;15.02;13.43;;;7.80;99.90;;;;;;5033305;28;20277;-83
2022/03/16 00:52:27;;;;;;;22.85;13.77;;;7.70;99.90;;;;;;5032399;28;20283;-83
2022/03/16 00:54:57;;;;;;;15.38;13.77;;;7.80;99.90;;;;;;5033297;28;20300;-82
2022/03/16 00:57:25;;;;;;;16.42;12.63;;;7.90;99.90;;;;;;5032845;28;20202;-82
2022/03/16 00:59:53;;;;;;;12.95;11.65;;;8.00;99.90;;;;;;5033359;28;20233;-82
2022/03/16 01:02:21;;;;;;;15.02;11.10;;;8.10;99.90;;;;;;5032748;28;20266;-82
2022/03/16 01:04:50;;;;;;;11.02;9.80;;;8.30;99.90;;;;;;5032821;28;20229;-85
2022/03/16 01:07:18;;;;;;;10.93;9.13;;;8.50;99.90;;;;;;5032690;28;20314;-85
2022/03/16 01:09:46;;;;;;;9.15;7.90;;;8.60;99.90;;;;;;5032786;28;20253;-85
2022/03/16 01:12:16;;;;;;;9.98;7.60;;;8.90;99.90;;;;;;5032946;28;20230;-85
2022/03/16 01:14:45;;;;;;;19.60;8.65;;;9.00;99.90;;;;;;5032718;28;20286;-85
2022/03/16 01:17:13;;;;;;;8.38;7.45;;;9.10;99.90;;;;;;5032607;28;20234;-85
2022/03/16 01:19:42;;;;;;;6.57;6.00;;;9.20;99.90;;;;;;5035077;28;20212;-85
2022/03/16 01:22:10;;;;;;;11.02;7.00;;;9.30;99.90;;;;;;5032468;28;20249;-85
2022/03/16 01:24:39;;;;;;;8.10;6.55;;;9.40;99.90;;;;;;5032520;28;20233;-85
2022/03/16 01:27:07;;;;;;;6.38;5.55;;;9.50;99.90;;;;;;5032376;28;20287;-85
2022/03/16 01:29:37;;;;;;;7.85;6.30;;;9.50;99.90;;;;;;5032914;28;20256;-85
2022/03/16 01:32:06;;;;;;;11.68;5.53;;;9.50;99.90;;;;;;5032269;28;20249;-85
2022/03/16 01:34:35;;;;;;;11.30;5.85;;;9.50;99.90;;;;;;5032581;28;20289;-85
2022/03/16 01:37:04;;;;;;;5.72;5.22;;;9.60;99.90;;;;;;5032582;28;20202;-85
2022/03/16 01:39:33;;;;;;;6.45;5.25;;;9.60;99.90;;;;;;5032472;28;20281;-84
2022/03/16 01:42:01;;;;;;;7.78;5.93;;;9.60;99.90;;;;;;5031829;28;20234;-85
2022/03/16 01:44:45;;;;;;;9.90;6.63;;;9.60;99.90;;;;;;5033091;28;20285;-84
2022/03/16 01:47:14;;;;;;;9.40;7.28;;;9.60;99.90;;;;;;5036047;28;20253;-85
2022/03/16 01:49:43;;;;;;;9.07;5.63;;;9.60;99.90;;;;;;5036001;28;20290;-85
2022/03/16 01:52:12;;;;;;;7.65;6.20;;;9.50;99.90;;;;;;5035512;28;20313;-85
2022/03/16 01:54:41;;;;;;;6.25;5.45;;;9.60;99.90;;;;;;5016124;28;20290;-84
2022/03/16 01:57:11;;;;;;;7.88;6.78;;;9.50;99.90;;;;;;5023861;28;20187;-85
2022/03/16 01:59:41;;;;;;;10.70;7.95;;;9.50;99.90;;;;;;5035731;28;20206;-83
2022/03/16 02:02:11;;;;;;;8.75;5.75;;;9.60;99.90;;;;;;5035680;28;20226;-83
2022/03/16 02:04:40;;;;;;;8.80;7.28;;;9.50;99.90;;;;;;5036034;28;20215;-82
2022/03/16 02:07:09;;;;;;;6.78;6.18;;;9.50;99.90;;;;;;5035935;28;20229;-82
2022/03/16 02:09:37;;;;;;;11.40;7.30;;;9.50;99.90;;;;;;5036155;28;20257;-83
2022/03/16 02:12:07;;;;;;;8.52;7.65;;;9.50;99.90;;;;;;5035623;28;20218;-82
2022/03/16 02:14:36;;;;;;;8.80;7.55;;;9.60;99.90;;;;;;5035329;28;20282;-82
2022/03/16 02:17:05;;;;;;;8.32;7.55;;;9.60;99.90;;;;;;5035688;28;20206;-82
2022/03/16 02:19:35;;;;;;;11.63;7.47;;;9.60;99.90;;;;;;5015766;28;20218;-82
2022/03/16 02:22:05;;;;;;;7.85;7.05;;;9.60;99.90;;;;;;5015723;28;20270;-83
2022/03/16 02:24:35;;;;;;;10.57;7.47;;;9.60;99.90;;;;;;5016174;28;20226;-83
2022/03/16 02:27:03;;;;;;;8.68;5.82;;;9.50;99.90;;;;;;5021184;28;20297;-83
2022/03/16 02:29:34;;;;;;;8.68;7.82;;;9.50;99.90;;;;;;5035008;28;20252;-82
2022/03/16 02:32:02;;;;;;;10.18;7.47;;;9.50;99.90;;;;;;5035064;28;20246;-82
2022/03/16 02:34:32;;;;;;;7.47;6.78;;;9.50;99.90;;;;;;5035431;28;20206;-82
2022/03/16 02:37:01;;;;;;;13.65;7.88;;;9.50;99.90;;;;;;5034833;28;20293;-82
2022/03/16 02:39:29;;;;;;;8.73;7.88;;;9.50;99.90;;;;;;5035364;28;20312;-82
2022/03/16 02:41:59;;;;;;;8.68;7.65;;;9.40;99.90;;;;;;5034958;28;20313;-82
2022/03/16 02:44:27;;;;;;;7.35;6.65;;;9.30;99.90;;;;;;5035160;28;20235;-82
2022/03/16 02:46:56;;;;;;;7.18;6.47;;;9.30;99.90;;;;;;5034709;28;20207;-82
2022/03/16 02:49:28;;;;;;;7.70;6.93;;;9.40;99.90;;;;;;5035169;28;20202;-83
2022/03/16 02:51:57;;;;;;;8.73;7.55;;;9.30;99.90;;;;;;5035318;28;20226;-82
2022/03/16 02:54:25;;;;;;;7.28;6.65;;;9.30;99.90;;;;;;5035367;28;20210;-83
2022/03/16 02:56:57;;;;;;;10.27;7.68;;;9.40;99.90;;;;;;5033737;28;20207;-82
2022/03/16 02:59:26;;;;;;;6.68;6.18;;;9.40;99.90;;;;;;5034472;28;20198;-83
2022/03/16 03:01:55;;;;;;;7.45;6.63;;;9.30;99.90;;;;;;5034717;28;20260;-83
2022/03/16 03:04:23;;;;;;;8.30;7.18;;;9.30;99.90;;;;;;5035304;28;20206;-82
2022/03/16 03:06:52;;;;;;;7.28;6.68;;;9.30;99.90;;;;;;5034946;28;20206;-83
2022/03/16 03:09:21;;;;;;;9.02;8.15;;;9.30;99.90;;;;;;5034776;28;20234;-83
2022/03/16 03:11:50;;;;;;;8.63;7.78;;;9.30;99.90;;;;;;5034229;28;20222;-82
2022/03/16 03:14:18;;;;;;;7.20;6.50;;;9.20;99.90;;;;;;5034273;28;20282;-83
2022/03/16 03:16:48;;;;;;;8.38;7.57;;;9.20;99.90;;;;;;5034280;28;20234;-82
2022/03/16 03:19:22;;;;;;;7.32;6.65;;;9.10;99.90;;;;;;5034067;28;20248;-83
2022/03/16 03:21:50;;;;;;;7.90;7.18;;;9.10;99.90;;;;;;5034287;28;20269;-83
2022/03/16 03:24:19;;;;;;;8.27;7.47;;;9.10;99.90;;;;;;5034424;28;20211;-83
2022/03/16 03:26:47;;;;;;;9.70;8.43;;;9.30;99.90;;;;;;5034344;28;20285;-83
2022/03/16 03:29:15;;;;;;;8.25;7.55;;;9.30;99.90;;;;;;5033940;28;20792;-82
2022/03/16 03:31:44;;;;;;;8.80;7.97;;;9.20;99.90;;;;;;5033688;28;20253;-83
2022/03/16 03:34:14;;;;;;;9.23;8.45;;;9.20;99.90;;;;;;5034191;28;20210;-82
2022/03/16 03:36:42;;;;;;;9.95;8.95;;;9.10;99.90;;;;;;5033997;28;20206;-82
2022/03/16 03:39:11;;;;;;;9.25;8.40;;;9.00;99.90;;;;;;5033847;28;20238;-82
2022/03/16 03:41:39;;;;;;;6.97;6.43;;;8.90;99.90;;;;;;5033698;28;20231;-82
2022/03/16 03:44:08;;;;;;;9.43;8.43;;;8.90;99.90;;;;;;5034319;28;20253;-83
2022/03/16 03:46:36;;;;;;;10.48;7.90;;;8.90;99.90;;;;;;5034246;28;20241;-82
2022/03/16 03:49:04;;;;;;;8.30;7.53;;;8.90;99.90;;;;;;5033229;28;20225;-83
2022/03/16 03:51:34;;;;;;;10.30;6.40;;;9.00;99.90;;;;;;5033727;28;20254;-82
2022/03/16 03:54:02;;;;;;;7.95;7.20;;;8.90;99.90;;;;;;5033696;28;20214;-82
2022/03/16 03:56:31;;;;;;;8.30;7.50;;;8.90;99.90;;;;;;5034220;28;20206;-82
2022/03/16 03:58:59;;;;;;;7.57;6.35;;;9.00;99.90;;;;;;5033790;28;20229;-82
2022/03/16 04:01:27;;;;;;;7.28;6.57;;;9.00;99.90;;;;;;5033238;28;20246;-82
2022/03/16 04:03:56;;;;;;;6.78;6.22;;;9.00;99.90;;;;;;5033818;28;20210;-83
2022/03/16 04:06:25;;;;;;;7.38;6.68;;;8.90;99.90;;;;;;5033373;28;20277;-83
2022/03/16 04:08:54;;;;;;;8.02;7.13;;;8.90;99.90;;;;;;5032296;28;20268;-82
2022/03/16 04:11:22;;;;;;;7.05;6.40;;;9.00;99.90;;;;;;5033496;28;20253;-82
2022/03/16 04:13:51;;;;;;;6.93;6.32;;;9.00;99.90;;;;;;5033209;28;20301;-82
2022/03/16 04:16:19;;;;;;;9.57;7.00;;;9.00;99.90;;;;;;5033343;28;20330;-83
2022/03/16 04:18:47;;;;;;;7.70;6.10;;;9.10;99.90;;;;;;5033445;28;20300;-83
2022/03/16 04:21:16;;;;;;;7.13;6.50;;;9.10;99.90;;;;;;5033218;28;20261;-83
2022/03/16 04:23:44;;;;;;;5.43;5.03;;;9.10;99.90;;;;;;5033687;28;20268;-83
2022/03/16 04:26:14;;;;;;;6.57;5.82;;;9.10;99.90;;;;;;5033256;28;20268;-83
2022/03/16 04:28:42;;;;;;;6.05;5.50;;;9.10;99.90;;;;;;5033245;28;20465;-83
2022/03/16 04:31:11;;;;;;;6.13;4.97;;;9.10;99.90;;;;;;5033390;28;20301;-83
2022/03/16 04:33:39;;;;;;;5.05;4.55;;;9.10;99.90;;;;;;5033347;28;20229;-83
2022/03/16 04:36:08;;;;;;;4.40;4.05;;;9.10;99.90;;;;;;5033649;28;20256;-83
2022/03/16 04:38:36;;;;;;;5.22;4.78;;;9.00;99.90;;;;;;5033386;28;20218;-83
2022/03/16 04:41:05;;;;;;;5.75;5.25;;;9.00;99.90;;;;;;5032925;28;20317;-83
2022/03/16 04:43:35;;;;;;;4.93;4.55;;;8.90;99.90;;;;;;5033266;28;20210;-83
2022/03/16 04:46:04;;;;;;;5.22;4.40;;;8.90;99.90;;;;;;5033093;28;20290;-83
2022/03/16 04:48:32;;;;;;;5.93;5.40;;;8.90;99.90;;;;;;5032910;28;20226;-83
2022/03/16 04:51:01;;;;;;;5.10;4.70;;;8.90;99.90;;;;;;5033110;28;20245;-83
2022/03/16 04:53:29;;;;;;;6.00;5.50;;;8.90;99.90;;;;;;5032928;28;20236;-83
2022/03/16 04:55:57;;;;;;;9.13;5.63;;;8.90;99.90;;;;;;5032887;28;20267;-83
2022/03/16 04:58:26;;;;;;;6.90;6.18;;;8.80;99.90;;;;;;5032780;28;20218;-83
2022/03/16 05:00:55;;;;;;;7.25;6.18;;;8.80;99.90;;;;;;5036423;28;20237;-83
2022/03/16 05:03:24;;;;;;;6.90;6.28;;;8.80;99.90;;;;;;5033824;28;20211;-83
2022/03/16 05:05:52;;;;;;;6.57;6.07;;;8.80;99.90;;;;;;5033279;28;20202;-83
2022/03/16 05:08:20;;;;;;;7.55;6.78;;;8.80;99.90;;;;;;5033070;28;20261;-83
2022/03/16 05:10:49;;;;;;;8.85;7.95;;;8.80;99.90;;;;;;5032765;28;20305;-85
2022/03/16 05:13:17;;;;;;;8.45;7.65;;;8.80;99.90;;;;;;5033109;28;20237;-83
2022/03/16 05:15:47;;;;;;;6.97;6.38;;;8.90;99.90;;;;;;5032975;28;20294;-83
2022/03/16 05:18:17;;;;;;;10.25;8.80;;;8.80;99.90;;;;;;5033113;28;20261;-83
2022/03/16 05:20:46;;;;;;;8.70;6.32;;;8.80;99.90;;;;;;5038816;28;20226;-83
2022/03/16 05:23:14;;;;;;;9.25;8.30;;;8.80;99.90;;;;;;5037163;28;20252;-83
2022/03/16 05:25:42;;;;;;;8.20;7.28;;;8.80;99.90;;;;;;5036332;28;20249;-83
2022/03/16 05:28:11;;;;;;;7.97;7.18;;;8.80;99.90;;;;;;5036734;28;20203;-83
2022/03/16 05:30:39;;;;;;;8.43;7.63;;;8.80;99.90;;;;;;5036490;28;20226;-83
2022/03/16 05:33:07;;;;;;;8.70;7.80;;;8.70;99.90;;;;;;5020486;28;20241;-83
2022/03/16 05:35:39;;;;;;;8.00;7.28;;;8.70;99.90;;;;;;5036581;28;20269;-83
2022/03/16 05:38:08;;;;;;;9.57;8.57;;;8.70;99.90;;;;;;5036201;28;20230;-83
2022/03/16 05:40:36;;;;;;;8.73;8.02;;;8.70;99.90;;;;;;5036429;28;20242;-82
2022/03/16 05:43:04;;;;;;;9.32;8.38;;;8.60;99.90;;;;;;5036193;28;20207;-83
2022/03/16 05:45:33;;;;;;;10.60;9.43;;;8.70;99.90;;;;;;5036375;28;20206;-83
2022/03/16 05:48:01;;;;;;;11.60;10.40;;;8.70;99.90;;;;;;5036091;28;20281;-83
2022/03/16 05:50:29;;;;;;;9.45;8.55;;;8.70;99.90;;;;;;5035737;28;20231;-83
2022/03/16 05:53:00;;;;;;;10.35;9.35;;;8.70;99.90;;;;;;5036129;28;20240;-83
2022/03/16 05:55:29;;;;;;;11.02;9.85;;;8.70;99.90;;;;;;5036219;28;20245;-83
2022/03/16 05:57:57;;;;;;;11.68;10.50;;;8.70;99.90;;;;;;5035828;28;20226;-83
2022/03/16 06:00:25;;;;;;;10.95;9.88;;;8.70;99.90;;;;;;5035904;28;20318;-83
2022/03/16 06:02:54;;;;;;;11.27;9.93;;;8.70;99.90;;;;;;5035843;28;20230;-84
2022/03/16 06:05:25;;;;;;;12.02;9.90;;;8.70;99.90;;;;;;5035772;28;20252;-83
2022/03/16 06:07:54;;;;;;;9.93;8.95;;;8.70;99.90;;;;;;5035809;28;20226;-83
2022/03/16 06:10:24;;;;;;;11.35;10.15;;;8.70;99.90;;;;;;5035382;28;20250;-83
2022/03/16 06:12:54;;;;;;;12.25;10.07;;;8.70;99.90;;;;;;5019533;28;20285;-83
2022/03/16 06:15:24;;;;;;;11.25;10.07;;;8.70;99.90;;;;;;5035707;28;20210;-84
2022/03/16 06:17:52;;;;;;;10.98;9.90;;;8.70;99.90;;;;;;5035389;28;20209;-84
2022/03/16 06:20:21;;;;;;;9.95;9.02;;;8.60;99.90;;;;;;5035359;28;20226;-84
2022/03/16 06:22:49;;;;;;;20.27;9.85;;;8.60;99.90;;;;;;5035789;28;20298;-86
2022/03/16 06:25:28;;;;;;;11.60;10.57;;;8.60;99.90;;;;;;5035612;28;20241;-84
2022/03/16 06:27:56;;;;;;;11.68;10.57;;;8.50;99.90;;;;;;5035424;28;20226;-83
2022/03/16 06:30:25;;;;;;;12.13;10.02;;;8.60;99.90;;;;;;5034973;28;20313;-83
2022/03/16 06:32:54;;;;;;;10.80;9.68;;;8.50;99.90;;;;;;5034566;28;20371;-83
2022/03/16 06:35:22;;;;;;;10.60;9.57;;;8.50;99.90;;;;;;5035340;28;20210;-84
2022/03/16 06:37:50;;;;;;;12.32;11.00;;;8.50;99.90;;;;;;5035096;28;20249;-82
2022/03/16 06:40:19;;;;;;;11.75;10.55;;;8.40;99.90;;;;;;5034663;28;20305;-82
2022/03/16 06:42:53;;;;;;;13.75;11.15;;;8.40;99.90;;;;;;5034996;28;20203;-80
2022/03/16 06:45:22;;;;;;;10.68;9.77;;;8.40;99.90;;;;;;5035031;28;20230;-83
2022/03/16 06:47:51;;;;;;;10.55;9.65;;;8.40;99.90;;;;;;5015580;28;20235;-84
2022/03/16 06:50:20;;;;;;;12.02;10.88;;;8.40;99.90;;;;;;5015133;28;20334;-83
2022/03/16 06:52:49;;;;;;;13.23;10.50;;;8.40;99.90;;;;;;5015278;28;20293;-83
2022/03/16 06:55:17;;;;;;;13.88;11.93;;;8.40;99.90;;;;;;5015303;28;20242;-83
2022/03/16 06:57:45;;;;;;;16.13;12.50;;;8.30;99.90;;;;;;5015110;28;20242;-84
2022/03/16 07:00:16;;;;;;;12.93;11.60;;;8.30;99.90;;;;;;5014880;28;20226;-83
2022/03/16 07:02:52;;;;;;;13.05;11.68;;;8.30;99.90;;;;;;5014928;28;20207;-84
2022/03/16 07:05:22;;;;;;;10.93;9.82;;;8.30;99.90;;;;;;5034861;28;20205;-84
2022/03/16 07:07:50;;;;;;;11.93;10.40;;;8.30;99.90;;;;;;5034653;28;20238;-84
2022/03/16 07:10:20;;;;;;;10.48;9.55;;;8.30;99.90;;;;;;5034296;28;20317;-84
2022/03/16 07:12:48;;;;;;;11.88;10.65;;;8.30;99.90;;;;;;5034964;28;20202;-84
2022/03/16 07:15:18;;;;;;;11.43;10.35;;;8.30;99.90;;;;;;5034732;28;20238;-83
2022/03/16 07:17:47;;;;;;;16.52;11.95;;;8.30;99.90;;;;;;5034480;28;20209;-84
2022/03/16 07:20:15;;;;;;;12.27;10.60;;;8.30;99.90;;;;;;5034215;28;20218;-84
2022/03/16 07:22:44;;;;;;;11.90;10.70;;;8.30;99.90;;;;;;5014509;28;20227;-84
2022/03/16 07:25:29;;;;;;;15.93;11.98;;;8.30;99.90;;;;;;5033859;28;20221;-84
2022/03/16 07:27:57;;;;;;;11.85;10.15;;;8.30;99.90;;;;;;5034562;28;20225;-84
2022/03/16 07:30:27;;;;;;;11.10;9.95;;;8.30;99.90;;;;;;5033998;28;20323;-84
2022/03/16 07:32:56;;;;;;;14.27;11.32;;;8.30;99.90;;;;;;5033838;28;20214;-84
2022/03/16 07:35:26;;;;;;;17.55;12.07;;;8.30;99.90;;;;;;5033546;28;20198;-85
2022/03/16 07:37:56;;;;;;;11.80;10.65;;;8.30;99.90;;;;;;5034086;28;20241;-85
2022/03/16 07:40:25;;;;;;;12.98;11.15;;;8.40;99.90;;;;;;5034351;28;20269;-85
2022/03/16 07:42:54;;;;;;;11.70;10.57;;;8.40;99.90;;;;;;5033890;28;20214;-84
2022/03/16 07:45:22;;;;;;;12.38;10.70;;;8.40;99.90;;;;;;5034013;28;20241;-85
2022/03/16 07:47:55;;;;;;;12.15;11.00;;;8.30;99.90;;;;;;5033622;28;20296;-85
2022/03/16 07:50:24;;;;;;;11.85;10.75;;;8.30;99.90;;;;;;5033334;28;20254;-85
2022/03/16 07:52:54;;;;;;;13.63;11.32;;;8.30;99.90;;;;;;5034004;28;20210;-85
2022/03/16 07:55:22;;;;;;;11.25;10.05;;;8.40;99.90;;;;;;5033645;28;20203;-86
2022/03/16 07:57:52;;;;;;;11.70;10.50;;;8.30;99.90;;;;;;5033930;28;20210;-85
2022/03/16 08:00:21;;;;;;;12.60;11.40;;;8.30;99.90;;;;;;5032924;28;20305;-86
2022/03/16 08:02:59;;;;;;;12.68;11.50;;;8.30;99.90;;;;;;5033112;28;20261;-85
2022/03/16 08:05:27;;;;;;;15.50;12.32;;;8.30;99.90;;;;;;5046645;28;20271;-85
2022/03/16 08:07:56;;;;;;;15.63;12.82;;;8.30;99.90;;;;;;5053466;28;20206;-85
2022/03/16 08:10:25;;;;;;;14.90;11.90;;;8.30;99.90;;;;;;5053260;28;20222;-84
2022/03/16 08:12:53;;;;;;;16.85;12.55;;;8.30;99.90;;;;;;5043393;28;20210;-84
2022/03/16 08:15:22;;;;;;;13.95;12.48;;;8.30;99.90;;;;;;5033352;28;20282;-85
2022/03/16 08:17:50;;;;;;;14.80;13.07;;;8.30;99.90;;;;;;5033307;28;20226;-84
2022/03/16 08:20:20;;;;;;;13.85;11.68;;;8.30;99.90;;;;;;5032854;28;20235;-85
2022/03/16 08:22:51;;;;;;;13.57;12.15;;;8.30;99.90;;;;;;5033434;28;20202;-85
2022/03/16 08:25:21;;;;;;;13.15;11.88;;;8.30;99.90;;;;;;5033446;28;20217;-85
2022/03/16 08:27:49;;;;;;;13.35;11.95;;;8.30;99.90;;;;;;5033182;28;20210;-86
2022/03/16 08:30:18;;;;;;;15.75;12.48;;;8.30;99.90;;;;;;5033157;28;20246;-85
2022/03/16 08:32:46;;;;;;;14.57;13.13;;;8.40;99.90;;;;;;5033332;28;20234;-85
2022/03/16 08:35:15;;;;;;;14.90;13.25;;;8.40;99.90;;;;;;5033303;28;20230;-86
2022/03/16 08:37:44;;;;;;;14.38;13.00;;;8.40;99.90;;;;;;5030366;28;20226;-85
2022/03/16 08:40:15;;;;;;;14.70;13.13;;;8.40;99.90;;;;;;5033316;28;20285;-84
2022/03/16 08:42:44;;;;;;;14.95;11.80;;;8.40;99.90;;;;;;5033040;28;20207;-83
2022/03/16 08:45:12;;;;;;;14.93;13.40;;;8.50;99.90;;;;;;5033165;28;20226;-85
2022/03/16 08:47:41;;;;;;;16.35;13.50;;;8.50;99.90;;;;;;5033436;28;20209;-84
2022/03/16 08:50:10;;;;;;;15.75;14.10;;;8.50;99.90;;;;;;5033122;28;20206;-82
2022/03/16 08:52:39;;;;;;;17.92;14.63;;;8.60;99.90;;;;;;5032567;28;20289;-84
2022/03/16 08:55:09;;;;;;;19.15;13.98;;;8.60;99.90;;;;;;5033710;28;20222;-84
2022/03/16 08:57:47;;;;;;;16.08;14.52;;;8.70;99.90;;;;;;5037436;28;20198;-84
2022/03/16 09:00:18;;;;;;;17.83;13.82;;;8.70;99.90;;;;;;5038638;28;20242;-84
2022/03/16 09:02:47;;;;;;;16.88;13.35;;;8.70;99.90;;;;;;5037154;28;20212;-84
2022/03/16 09:05:17;;;;;;;16.88;14.98;;;8.80;99.90;;;;;;5036866;28;20206;-85
2022/03/16 09:07:45;;;;;;;14.07;12.77;;;8.80;99.90;;;;;;5037051;28;20225;-85
2022/03/16 09:10:15;;;;;;;17.58;13.98;;;8.90;99.90;;;;;;5036514;28;20198;-84
2022/03/16 09:12:44;;;;;;;14.85;13.38;;;8.90;99.90;;;;;;5037460;28;20203;-84
2022/03/16 09:15:13;;;;;;;15.93;13.20;;;8.90;99.90;;;;;;5036735;28;20268;-85
2022/03/16 09:17:41;;;;;;;15.35;13.40;;;8.90;99.90;;;;;;5037233;28;20233;-85
2022/03/16 09:20:10;;;;;;;17.08;14.15;;;8.90;99.90;;;;;;5037318;28;20249;-85
2022/03/16 09:22:38;;;;;;;17.23;14.43;;;8.80;99.90;;;;;;5036412;28;20226;-85
2022/03/16 09:25:07;;;;;;;14.80;13.30;;;8.80;99.90;;;;;;5036818;28;20214;-85
2022/03/16 09:27:38;;;;;;;20.08;15.50;;;8.80;99.90;;;;;;5036775;28;20313;-85
2022/03/16 09:30:07;;;;;;;18.13;16.23;;;8.80;99.90;;;;;;5036310;28;20206;-85
2022/03/16 09:32:37;;;;;;;15.63;13.95;;;8.70;99.90;;;;;;5036061;28;20218;-85
2022/03/16 09:35:06;;;;;;;16.10;14.50;;;8.80;99.90;;;;;;5036442;28;20207;-85
2022/03/16 09:37:35;;;;;;;17.33;15.55;;;8.70;99.90;;;;;;5036633;28;20206;-85
2022/03/16 09:40:04;;;;;;;18.08;14.23;;;8.70;99.90;;;;;;5036477;28;20198;-85
2022/03/16 09:42:32;;;;;;;16.80;14.00;;;8.70;99.90;;;;;;5036178;28;20225;-85
2022/03/16 09:45:02;;;;;;;17.02;15.27;;;8.70;99.90;;;;;;5036296;28;20237;-85
2022/03/16 09:47:31;;;;;;;15.13;13.15;;;8.70;99.90;;;;;;5036281;28;20222;-85
2022/03/16 09:50:00;;;;;;;21.55;15.25;;;8.70;99.90;;;;;;5035743;28;20215;-85
2022/03/16 09:52:28;;;;;;;17.75;15.27;;;8.60;99.90;;;;;;5035645;28;20253;-85
2022/03/16 09:54:57;;;;;;;14.77;13.38;;;8.60;99.90;;;;;;5036028;28;20218;-85
2022/03/16 09:57:25;;;;;;;16.23;14.63;;;8.60;99.90;;;;;;5035905;28;20221;-86
2022/03/16 09:59:53;;;;;;;16.35;13.90;;;8.60;99.90;;;;;;5035734;28;20277;-85
2022/03/16 10:02:26;;;;;;;17.60;14.65;;;8.60;99.90;;;;;;5035814;28;20265;-85
2022/03/16 10:04:55;;;;;;;16.17;14.48;;;8.60;99.90;;;;;;5036051;28;20226;-84
2022/03/16 10:07:30;;;;;;;16.52;14.52;;;8.60;99.90;;;;;;5035736;28;20214;-85
2022/03/16 10:15:43;;;;;;;15.20;13.70;;;8.70;99.90;;;;;;5035167;28;20308;-85
2022/03/16 10:18:16;;;;;;;16.73;14.70;;;8.70;99.90;;;;;;5035348;28;20230;-84
2022/03/16 10:20:45;;;;;;;17.05;15.32;;;8.70;99.90;;;;;;5035326;28;20222;-84
2022/03/16 10:23:17;;;;;;;16.92;15.23;;;8.70;99.90;;;;;;5035696;28;20257;-85
2022/03/16 10:25:51;;;;;;;15.27;13.73;;;8.70;99.90;;;;;;5035751;28;20230;-85
2022/03/16 10:28:21;;;;;;;25.08;15.00;;;8.70;99.90;;;;;;5035350;28;20202;-85
2022/03/16 10:30:56;;;;;;;15.27;13.90;;;8.70;99.90;;;;;;5035219;28;20226;-85
2022/03/16 10:33:30;;;;;;;17.73;15.93;;;8.70;99.90;;;;;;5035645;28;20190;-85
2022/03/16 10:36:04;;;;;;;18.58;15.68;;;8.70;99.90;;;;;;5035095;28;20214;-85
2022/03/16 10:38:38;;;;;;;15.93;14.35;;;8.70;99.90;;;;;;5035144;28;20202;-85
2022/03/16 10:41:12;;;;;;;17.30;15.45;;;8.70;99.90;;;;;;5035168;28;20229;-85
2022/03/16 10:46:38;;;;;;;16.17;14.57;;;8.70;99.90;;;;;;5015424;28;20290;-84
2022/03/16 10:49:10;;;;;;;17.33;15.57;;;8.70;99.90;;;;;;5015538;28;20269;-85
2022/03/16 10:51:39;;;;;;;21.60;15.27;;;8.70;99.90;;;;;;5014893;28;20301;-84
2022/03/16 10:54:25;;;;;;;19.73;16.63;;;8.70;99.90;;;;;;5015325;28;20277;-86
2022/03/16 10:56:55;;;;;;;15.52;13.68;;;8.80;99.90;;;;;;5028972;28;20202;-82
2022/03/16 10:59:29;;;;;;;13.52;10.45;;;8.80;99.90;;;;;;5035027;28;20236;-84
2022/03/16 11:02:05;;;;;;;10.40;9.40;;;8.70;99.90;;;;;;5034921;28;20229;-85
2022/03/16 11:04:36;;;;;;;10.73;9.55;;;8.70;99.90;;;;;;5034699;28;20236;-84
2022/03/16 11:07:06;;;;;;;10.35;9.45;;;8.60;99.90;;;;;;5035000;28;20218;-85
2022/03/16 11:09:35;;;;;;;11.60;9.95;;;8.60;99.90;;;;;;5034700;28;20241;-83
2022/03/16 11:14:58;;;;;;;13.02;10.50;;;8.60;99.90;;;;;;5034854;28;20229;-84
2022/03/16 11:17:28;;;;;;;11.93;10.63;;;8.70;99.90;;;;;;5034398;28;20230;-85
2022/03/16 11:20:00;;;;;;;13.40;11.73;;;8.70;99.90;;;;;;5034002;28;20203;-87
2022/03/16 11:22:34;;;;;;;12.48;11.20;;;8.80;99.90;;;;;;5034597;28;20260;-85
2022/03/16 11:25:07;;;;;;;10.63;9.52;;;8.80;99.90;;;;;;5034446;28;20214;-86
2022/03/16 11:27:46;;;;;;;10.15;9.20;;;8.90;99.90;;;;;;5034325;28;20253;-85
2022/03/16 11:30:25;;;;;;;9.75;8.90;;;9.00;99.90;;;;;;5034145;28;20202;-86
2022/03/16 11:32:57;;;;;;;11.85;9.70;;;9.20;99.90;;;;;;5033939;28;20241;-86
2022/03/16 11:35:31;;;;;;;8.80;8.00;;;9.50;99.90;;;;;;5034390;28;20209;-86
2022/03/16 11:38:08;;;;;;;8.35;7.65;;;9.60;99.90;;;;;;5033935;28;20237;-85
2022/03/16 11:40:38;;;;;;;11.73;9.63;;;9.60;99.90;;;;;;5033729;28;20230;-86
2022/03/16 11:43:30;;;;;;;9.57;8.68;;;9.70;99.90;;;;;;5034031;28;20226;-86
2022/03/16 11:45:59;;;;;;;10.75;9.65;;;9.70;99.90;;;;;;5019538;28;20233;-87
2022/03/16 11:48:41;;;;;;;10.50;9.48;;;9.70;99.90;;;;;;5034220;28;20229;-86
2022/03/16 11:51:23;;;;;;;12.00;10.07;;;9.70;99.90;;;;;;5034015;28;20230;-86
2022/03/16 11:54:11;;;;;;;10.52;9.38;;;9.70;99.90;;;;;;5033187;28;20233;-84
2022/03/16 11:56:57;;;;;;;10.55;9.23;;;9.80;99.90;;;;;;5033788;28;20289;-85
2022/03/16 11:59:47;;;;;;;11.45;10.38;;;9.90;99.90;;;;;;5034114;28;20203;-85
2022/03/16 12:02:37;;;;;;;9.75;8.85;;;9.90;99.90;;;;;;5033380;28;20249;-85
2022/03/16 12:05:12;;;;;;;9.63;8.30;;;9.90;99.90;;;;;;5033847;28;20213;-85
2022/03/16 12:07:41;;;;;;;14.23;10.18;;;9.90;99.90;;;;;;5033806;28;20264;-85
2022/03/16 12:10:12;;;;;;;11.88;10.63;;;9.70;99.90;;;;;;5033556;28;20214;-85
2022/03/16 12:12:54;;;;;;;12.40;10.77;;;9.70;99.90;;;;;;5033187;28;20218;-85
2022/03/16 12:15:34;;;;;;;10.50;9.40;;;9.70;99.90;;;;;;5033771;28;20241;-85
2022/03/16 12:18:31;;;;;;;10.98;9.90;;;9.60;99.90;;;;;;5032739;28;20274;-85
2022/03/16 12:21:03;;;;;;;11.15;10.10;;;9.60;99.90;;;;;;5033156;28;20230;-80
2022/03/16 12:23:49;;;;;;;10.18;9.20;;;9.60;99.90;;;;;;5033260;28;20204;-84
2022/03/16 12:26:22;;;;;;;10.63;9.02;;;9.60;99.90;;;;;;5033114;28;20233;-85
2022/03/16 12:29:07;;;;;;;11.70;9.88;;;9.60;99.90;;;;;;5033384;28;20199;-85
2022/03/16 12:31:42;;;;;;;10.38;9.38;;;9.60;99.90;;;;;;5032510;28;20230;-84
2022/03/16 12:34:15;;;;;;;13.50;10.88;;;9.50;99.90;;;;;;5033136;28;20297;-84
2022/03/16 12:36:44;;;;;;;10.18;9.10;;;9.50;99.90;;;;;;5033053;28;20225;-85
2022/03/16 12:39:14;;;;;;;12.23;10.95;;;9.50;99.90;;;;;;5032882;28;20302;-84
2022/03/16 12:44:42;;;;;;;16.40;12.23;;;9.60;99.90;;;;;;5033249;28;20289;-85
2022/03/16 12:47:22;;;;;;;12.73;11.45;;;9.70;99.90;;;;;;5032963;28;20199;-84
2022/03/16 12:49:52;;;;;;;15.50;12.15;;;10.00;99.90;;;;;;5032849;28;20218;-84
2022/03/16 12:52:21;;;;;;;14.50;11.50;;;10.60;99.90;;;;;;5032831;28;20214;-85
2022/03/16 12:54:54;;;;;;;16.40;11.10;;;11.40;99.90;;;;;;5033044;28;20225;-84
2022/03/16 12:57:22;;;;;;;13.07;11.93;;;12.00;99.90;;;;;;5038328;28;20229;-84
2022/03/16 12:59:53;;;;;;;12.77;11.48;;;11.90;99.90;;;;;;5033541;28;20262;-85
2022/03/16 13:02:24;;;;;;;17.20;13.43;;;11.80;99.90;;;;;;5032618;28;20273;-85
2022/03/16 13:04:54;;;;;;;16.70;12.43;;;11.50;99.90;;;;;;5032689;28;20217;-84
2022/03/16 13:07:24;;;;;;;13.75;12.00;;;11.60;99.90;;;;;;5033366;28;20229;-85
2022/03/16 13:09:54;;;;;;;13.55;12.23;;;11.60;99.90;;;;;;5033049;28;20309;-84
2022/03/16 13:12:24;;;;;;;15.10;13.63;;;11.70;99.90;;;;;;5033129;28;20245;-85
2022/03/16 13:14:55;;;;;;;15.40;12.57;;;11.70;99.90;;;;;;5032604;28;20221;-84